Time;durP1;ratioP1;P1;durP2;ratioP2;P2;SDS_P1;SDS_P2;PMS_P1;PMS_P2;Temp;Humidity;BMP_temperature;BMP_pressure;BME280_temperature;BME280_humidity;BME280_pressure;Samples;Min_cycle;Max_cycle;Signal;HPM_P1;HPM_P2
2022/09/27 00:01:37;;;;;;;48.78;27.52;;;8.20;99.90;;;;;;5075115;28;20062;-80
2022/09/27 00:04:03;;;;;;;37.17;18.10;;;8.20;99.90;;;;;;5073753;28;20466;-80
2022/09/27 00:06:30;;;;;;;40.58;19.42;;;8.10;99.90;;;;;;5075089;28;20074;-80
2022/09/27 00:08:57;;;;;;;44.97;19.90;;;8.10;99.90;;;;;;5074917;28;20036;-80
2022/09/27 00:11:25;;;;;;;117.25;24.38;;;8.00;99.90;;;;;;5075078;28;20029;-80
2022/09/27 00:13:52;;;;;;;60.00;21.23;;;7.90;99.90;;;;;;5075020;28;20021;-80
2022/09/27 00:16:17;;;;;;;58.45;19.70;;;7.80;99.90;;;;;;5074843;28;20035;-80
2022/09/27 00:18:43;;;;;;;73.25;20.95;;;7.80;99.90;;;;;;5074787;28;20091;-75
2022/09/27 00:21:11;;;;;;;60.83;18.20;;;7.80;99.90;;;;;;5074857;28;20100;-76
2022/09/27 00:23:37;;;;;;;101.20;21.38;;;7.70;99.90;;;;;;5074748;28;20024;-81
2022/09/27 00:26:04;;;;;;;60.22;20.92;;;7.70;99.90;;;;;;5073164;28;20040;-81
2022/09/27 00:28:30;;;;;;;68.22;21.42;;;7.60;99.90;;;;;;5074692;28;20016;-81
2022/09/27 00:30:56;;;;;;;89.35;19.98;;;7.60;99.90;;;;;;5074307;28;20024;-80
2022/09/27 00:33:21;;;;;;;47.83;17.63;;;7.50;99.90;;;;;;5073318;28;20028;-75
2022/09/27 00:35:47;;;;;;;54.85;16.98;;;7.50;99.90;;;;;;4999910;28;20106;-81
2022/09/27 00:38:13;;;;;;;55.08;17.75;;;7.50;99.90;;;;;;4983583;28;20076;-75
2022/09/27 00:40:38;;;;;;;32.03;15.65;;;7.50;99.90;;;;;;4992139;28;20034;-75
2022/09/27 00:43:21;;;;;;;31.73;16.08;;;7.50;99.90;;;;;;4992282;28;20026;-81
2022/09/27 00:46:01;;;;;;;57.30;17.45;;;7.40;99.90;;;;;;4991933;28;20058;-75
2022/09/27 00:48:30;;;;;;;29.52;16.08;;;7.40;99.90;;;;;;4992147;28;20034;-76
2022/09/27 00:51:00;;;;;;;33.95;16.42;;;7.40;99.90;;;;;;4992024;28;20533;-75
2022/09/27 00:53:34;;;;;;;49.58;17.15;;;7.30;99.90;;;;;;4991982;28;20044;-76
2022/09/27 00:56:05;;;;;;;44.47;15.40;;;7.30;99.90;;;;;;4990378;28;20026;-80
2022/09/27 00:58:34;;;;;;;34.28;17.23;;;7.20;99.90;;;;;;4992301;28;20109;-80
2022/09/27 01:01:05;;;;;;;34.88;16.40;;;7.20;99.90;;;;;;4991792;28;20037;-80
2022/09/27 01:03:57;;;;;;;29.40;15.48;;;7.10;99.90;;;;;;4990670;28;20033;-80
2022/09/27 01:06:22;;;;;;;31.97;14.90;;;7.10;99.90;;;;;;4991686;28;20204;-75
2022/09/27 01:08:48;;;;;;;48.53;18.15;;;7.00;99.90;;;;;;4991907;28;20364;-80
2022/09/27 01:11:38;;;;;;;41.15;19.20;;;7.00;99.90;;;;;;4990475;28;20026;-80
2022/09/27 01:14:42;;;;;;;38.97;17.73;;;6.90;99.90;;;;;;4990300;28;20541;-80
2022/09/27 01:17:13;;;;;;;75.05;28.98;;;7.00;99.90;;;;;;4991612;28;20027;-75
2022/09/27 01:20:01;;;;;;;43.67;21.85;;;6.90;99.90;;;;;;4991685;28;20026;-80
2022/09/27 01:22:55;;;;;;;32.63;18.50;;;7.00;99.90;;;;;;4990365;28;20022;-80
2022/09/27 01:25:46;;;;;;;36.42;15.73;;;7.00;99.90;;;;;;4992559;28;20045;-76
2022/09/27 01:28:39;;;;;;;33.08;16.25;;;6.90;99.90;;;;;;4991703;28;20034;-75
2022/09/27 01:31:14;;;;;;;50.40;18.23;;;6.90;99.90;;;;;;4989995;28;20027;-80
2022/09/27 01:34:07;;;;;;;43.25;17.33;;;6.80;99.90;;;;;;4990179;28;20033;-79
2022/09/27 01:36:54;;;;;;;45.25;16.65;;;6.80;99.90;;;;;;4991185;28;20105;-80
2022/09/27 01:39:54;;;;;;;41.58;17.45;;;6.80;99.90;;;;;;4991268;28;20022;-75
2022/09/27 01:42:31;;;;;;;35.13;18.63;;;6.70;99.90;;;;;;4991321;28;20025;-76
2022/09/27 01:45:05;;;;;;;68.20;18.63;;;6.80;99.90;;;;;;4989862;28;20133;-81
2022/09/27 01:47:41;;;;;;;66.55;19.70;;;6.70;99.90;;;;;;4989887;28;20045;-81
2022/09/27 01:50:12;;;;;;;52.60;18.77;;;6.70;99.90;;;;;;4990755;28;20101;-75
2022/09/27 01:52:54;;;;;;;47.92;18.48;;;6.70;99.90;;;;;;4991066;28;20476;-81
2022/09/27 01:55:23;;;;;;;44.67;17.60;;;6.60;99.90;;;;;;4989829;28;20023;-81
2022/09/27 01:58:12;;;;;;;49.25;16.70;;;6.60;99.90;;;;;;4991074;28;20033;-76
2022/09/27 02:00:42;;;;;;;70.93;18.75;;;6.50;99.90;;;;;;4989744;28;20026;-76
2022/09/27 02:03:18;;;;;;;84.32;20.23;;;6.50;99.90;;;;;;4972734;28;20489;-75
2022/09/27 02:05:51;;;;;;;55.42;20.55;;;6.50;99.90;;;;;;4970297;28;20128;-76
2022/09/27 02:08:29;;;;;;;57.80;21.42;;;6.40;99.90;;;;;;4971635;28;20599;-75
2022/09/27 02:10:59;;;;;;;75.13;21.67;;;6.40;99.90;;;;;;4971595;28;20031;-81
2022/09/27 02:13:44;;;;;;;77.78;22.20;;;6.30;99.90;;;;;;4971613;28;20030;-81
2022/09/27 02:16:27;;;;;;;72.15;20.23;;;6.30;99.90;;;;;;4970194;28;20455;-75
2022/09/27 02:19:17;;;;;;;67.80;18.35;;;6.20;99.90;;;;;;4970151;28;20068;-81
2022/09/27 02:22:17;;;;;;;79.50;19.25;;;6.20;99.90;;;;;;4970138;28;20515;-75
2022/09/27 02:25:02;;;;;;;52.85;19.08;;;6.10;99.90;;;;;;4971401;28;20034;-75
2022/09/27 02:27:37;;;;;;;51.47;17.88;;;6.10;99.90;;;;;;4971416;28;20019;-75
2022/09/27 02:30:11;;;;;;;43.47;17.58;;;6.20;99.90;;;;;;4971512;28;20369;-76
2022/09/27 02:32:37;;;;;;;59.85;19.95;;;6.10;99.90;;;;;;4969918;28;20054;-80
2022/09/27 02:35:08;;;;;;;57.20;20.95;;;6.10;99.90;;;;;;4979598;28;20030;-76
2022/09/27 02:37:34;;;;;;;68.47;22.90;;;6.20;99.90;;;;;;4990571;28;20026;-81
2022/09/27 02:40:00;;;;;;;40.95;21.45;;;6.20;99.90;;;;;;4990648;28;20049;-80
2022/09/27 02:42:27;;;;;;;41.85;19.27;;;6.20;99.90;;;;;;4989198;28;20484;-75
2022/09/27 02:44:53;;;;;;;62.63;20.08;;;6.20;99.90;;;;;;4989083;28;20134;-81
2022/09/27 02:47:31;;;;;;;31.52;16.67;;;6.20;99.90;;;;;;4989246;28;20117;-80
2022/09/27 02:50:42;;;;;;;36.55;18.05;;;6.20;99.90;;;;;;4984133;28;20019;-80
2022/09/27 02:53:19;;;;;;;29.80;18.35;;;6.20;99.90;;;;;;4971467;28;20046;-80
2022/09/27 02:55:51;;;;;;;38.42;18.65;;;6.20;99.90;;;;;;4989085;28;20027;-80
2022/09/27 02:58:34;;;;;;;43.22;15.93;;;6.20;99.90;;;;;;4990343;28;20027;-75
2022/09/27 03:01:30;;;;;;;38.72;16.65;;;6.20;99.90;;;;;;4990263;28;20030;-81
2022/09/27 03:04:17;;;;;;;32.00;14.68;;;6.20;99.90;;;;;;4991393;28;20026;-81
2022/09/27 03:06:46;;;;;;;37.80;16.15;;;6.20;99.90;;;;;;4992232;28;20082;-80
2022/09/27 03:09:23;;;;;;;42.90;16.83;;;6.20;99.90;;;;;;4993521;28;20361;-76
2022/09/27 03:11:49;;;;;;;38.15;17.13;;;6.10;99.90;;;;;;4993422;28;20038;-75
2022/09/27 03:14:15;;;;;;;30.25;18.10;;;6.10;99.90;;;;;;4992139;28;20105;-81
2022/09/27 03:16:41;;;;;;;32.13;15.43;;;6.20;99.90;;;;;;4993296;28;20049;-81
2022/09/27 03:19:08;;;;;;;27.83;15.95;;;6.10;99.90;;;;;;4992189;28;20551;-76
2022/09/27 03:21:34;;;;;;;32.35;16.52;;;6.10;99.90;;;;;;4992221;28;20026;-80
2022/09/27 03:24:00;;;;;;;32.40;16.65;;;6.10;99.90;;;;;;4992061;28;20041;-80
2022/09/27 03:26:26;;;;;;;27.75;16.60;;;6.10;99.90;;;;;;4985748;28;20030;-75
2022/09/27 03:28:52;;;;;;;30.15;17.10;;;6.10;99.90;;;;;;4973768;28;20476;-75
2022/09/27 03:31:17;;;;;;;27.55;16.08;;;6.00;99.90;;;;;;4972469;28;20067;-76
2022/09/27 03:33:43;;;;;;;28.75;16.55;;;6.00;99.90;;;;;;4973675;28;20037;-79
2022/09/27 03:36:08;;;;;;;29.80;15.95;;;6.00;99.90;;;;;;4976812;28;20038;-76
2022/09/27 03:38:34;;;;;;;31.75;17.23;;;6.00;99.90;;;;;;4972335;28;20088;-76
2022/09/27 03:40:59;;;;;;;23.75;15.35;;;5.90;99.90;;;;;;4973678;28;20019;-75
2022/09/27 03:43:25;;;;;;;25.38;14.52;;;5.90;99.90;;;;;;4972390;28;20072;-81
2022/09/27 03:45:51;;;;;;;26.45;15.70;;;5.80;99.90;;;;;;4972438;28;20034;-76
2022/09/27 03:48:16;;;;;;;28.73;16.23;;;5.70;99.90;;;;;;4973460;28;20477;-81
2022/09/27 03:50:42;;;;;;;29.65;17.45;;;5.70;99.90;;;;;;4972433;28;20117;-75
2022/09/27 03:53:08;;;;;;;34.70;18.13;;;5.70;99.90;;;;;;4973463;28;20045;-81
2022/09/27 03:55:34;;;;;;;35.58;17.95;;;5.70;99.90;;;;;;4972112;28;20035;-76
2022/09/27 03:58:00;;;;;;;37.55;19.40;;;5.70;99.90;;;;;;4991592;28;20022;-80
2022/09/27 04:00:26;;;;;;;30.20;17.52;;;5.70;99.90;;;;;;4992854;28;20037;-75
2022/09/27 04:02:51;;;;;;;31.33;18.25;;;5.70;99.90;;;;;;4992624;28;20026;-80
2022/09/27 04:05:18;;;;;;;37.08;20.45;;;5.70;99.90;;;;;;4992887;28;20494;-80
2022/09/27 04:07:48;;;;;;;31.67;19.30;;;5.70;99.90;;;;;;4992729;28;20033;-80
2022/09/27 04:10:14;;;;;;;34.22;17.52;;;5.70;99.90;;;;;;4992684;28;20026;-76
2022/09/27 04:12:40;;;;;;;39.10;19.67;;;5.70;99.90;;;;;;4991363;28;20022;-76
2022/09/27 04:15:07;;;;;;;38.45;18.98;;;5.60;99.90;;;;;;5041373;28;20021;-75
2022/09/27 04:17:33;;;;;;;34.30;18.13;;;5.60;99.90;;;;;;5074925;28;20067;-75
2022/09/27 04:20:02;;;;;;;25.30;15.60;;;5.60;99.90;;;;;;5074876;28;20024;-80
2022/09/27 04:22:29;;;;;;;26.95;16.02;;;5.50;99.90;;;;;;5074748;28;20020;-75
2022/09/27 04:24:54;;;;;;;29.38;16.88;;;5.50;99.90;;;;;;5073401;28;20381;-75
2022/09/27 04:27:21;;;;;;;30.25;18.40;;;5.50;99.90;;;;;;5073326;28;20119;-76
2022/09/27 04:29:47;;;;;;;35.20;20.05;;;5.40;99.90;;;;;;5074512;28;20047;-81
2022/09/27 04:32:13;;;;;;;43.25;22.40;;;5.40;99.90;;;;;;5074608;28;20044;-75
2022/09/27 04:37:24;;;;;;;34.30;19.33;;;5.40;99.90;;;;;;4973204;28;20039;-80
2022/09/27 04:39:50;;;;;;;28.60;17.25;;;5.40;99.90;;;;;;4972727;28;20019;-80
2022/09/27 04:42:16;;;;;;;31.20;16.83;;;5.40;99.90;;;;;;4972768;28;20530;-80
2022/09/27 04:44:42;;;;;;;28.42;17.13;;;5.30;99.90;;;;;;4983867;28;20026;-75
2022/09/27 04:47:08;;;;;;;28.05;18.08;;;5.30;99.90;;;;;;4991382;28;20075;-76
2022/09/27 04:49:34;;;;;;;35.95;20.38;;;5.30;99.90;;;;;;4991401;28;20093;-75
2022/09/27 04:52:00;;;;;;;26.10;17.33;;;5.30;99.90;;;;;;4991527;28;20064;-80
2022/09/27 04:54:26;;;;;;;31.35;18.73;;;5.30;99.90;;;;;;4991739;28;20022;-81
2022/09/27 04:56:51;;;;;;;30.88;18.27;;;5.30;99.90;;;;;;4990810;28;20030;-83
2022/09/27 04:59:17;;;;;;;30.40;17.05;;;5.30;99.90;;;;;;4987033;28;20614;-77
2022/09/27 05:01:44;;;;;;;27.90;16.85;;;5.30;99.90;;;;;;4972408;28;20035;-76
2022/09/27 05:04:09;;;;;;;27.33;15.85;;;5.30;99.90;;;;;;4972365;28;20172;-81
2022/09/27 05:06:35;;;;;;;52.90;30.02;;;5.40;99.90;;;;;;4988760;28;20113;-84
2022/09/27 05:09:01;;;;;;;49.00;24.23;;;5.30;99.90;;;;;;4991204;28;20502;-81
2022/09/27 05:11:26;;;;;;;66.38;32.60;;;5.30;99.90;;;;;;4991412;28;20049;-81
2022/09/27 05:13:52;;;;;;;47.45;24.92;;;5.40;99.90;;;;;;4991584;28;20053;-80
2022/09/27 05:16:18;;;;;;;29.70;18.48;;;5.40;99.90;;;;;;4991469;28;20485;-80
2022/09/27 05:18:44;;;;;;;30.13;19.90;;;5.60;99.90;;;;;;4991638;28;20026;-81
2022/09/27 05:21:10;;;;;;;31.58;18.00;;;5.70;99.90;;;;;;4991481;28;20395;-80
2022/09/27 05:23:36;;;;;;;28.85;19.80;;;5.70;99.90;;;;;;4986468;28;20072;-79
2022/09/27 05:26:06;;;;;;;34.45;20.52;;;5.90;99.90;;;;;;4971109;28;20042;-79
2022/09/27 05:28:34;;;;;;;45.30;27.27;;;5.90;99.90;;;;;;4970162;28;20073;-79
2022/09/27 05:31:00;;;;;;;41.33;23.58;;;6.00;99.90;;;;;;4975148;28;20488;-78
2022/09/27 05:33:26;;;;;;;38.38;21.10;;;6.10;99.90;;;;;;4989506;28;20033;-79
2022/09/27 05:35:56;;;;;;;32.30;20.58;;;6.20;99.90;;;;;;4985882;28;20117;-75
2022/09/27 05:38:22;;;;;;;30.45;18.65;;;6.40;99.90;;;;;;4989906;28;20058;-75
2022/09/27 05:40:49;;;;;;;32.28;21.10;;;6.60;99.90;;;;;;4989888;28;20046;-75
2022/09/27 05:43:16;;;;;;;45.13;24.67;;;6.80;99.90;;;;;;4989155;28;20014;-75
2022/09/27 05:45:42;;;;;;;38.83;23.30;;;6.80;99.90;;;;;;4989803;28;20041;-76
2022/09/27 05:48:09;;;;;;;45.67;27.15;;;6.90;99.90;;;;;;4990291;28;20058;-75
2022/09/27 05:50:35;;;;;;;37.72;22.25;;;7.10;99.90;;;;;;4987692;28;20058;-81
2022/09/27 05:53:00;;;;;;;35.15;20.77;;;7.20;99.90;;;;;;4979392;28;20072;-75
2022/09/27 05:55:26;;;;;;;35.35;21.38;;;7.40;99.90;;;;;;4979556;28;20412;-76
2022/09/27 05:57:56;;;;;;;36.40;22.77;;;7.70;99.90;;;;;;4957935;28;20042;-76
2022/09/27 06:00:22;;;;;;;31.95;20.75;;;7.80;99.90;;;;;;4985713;28;20037;-77
2022/09/27 06:02:55;;;;;;;30.88;19.45;;;8.10;99.90;;;;;;4972352;28;20046;-77
2022/09/27 06:05:22;;;;;;;30.15;19.25;;;8.30;99.90;;;;;;4983011;28;20400;-77
2022/09/27 06:07:51;;;;;;;29.35;18.83;;;8.60;99.90;;;;;;4987290;28;20027;-77
2022/09/27 06:10:18;;;;;;;25.48;17.73;;;8.70;99.90;;;;;;4988362;28;20022;-77
2022/09/27 06:12:44;;;;;;;27.73;17.73;;;8.90;99.90;;;;;;4989606;28;20488;-77
2022/09/27 06:15:10;;;;;;;23.83;16.10;;;9.00;99.90;;;;;;4987508;28;20052;-77
2022/09/27 06:17:36;;;;;;;23.63;16.58;;;9.20;99.90;;;;;;4989669;28;20091;-77
2022/09/27 06:20:02;;;;;;;23.83;15.30;;;9.30;99.90;;;;;;4989800;28;20027;-77
2022/09/27 06:22:28;;;;;;;22.25;16.00;;;9.40;99.90;;;;;;4979573;28;20185;-77
2022/09/27 06:24:53;;;;;;;20.48;14.20;;;9.60;99.90;;;;;;4980554;28;20527;-77
2022/09/27 06:27:19;;;;;;;19.48;14.20;;;9.70;99.90;;;;;;5037814;28;20088;-82
2022/09/27 06:29:45;;;;;;;23.55;14.45;;;9.80;99.90;;;;;;4970831;28;20080;-81
2022/09/27 06:32:10;;;;;;;17.73;13.27;;;10.00;99.90;;;;;;5053766;28;20046;-81
2022/09/27 06:34:36;;;;;;;19.50;12.88;;;10.10;99.90;;;;;;5058057;28;20039;-81
2022/09/27 06:37:02;;;;;;;16.40;13.05;;;10.30;99.90;;;;;;4972613;28;20487;-81
2022/09/27 06:39:27;;;;;;;19.50;12.85;;;10.40;99.90;;;;;;4973384;28;20491;-81
2022/09/27 06:41:56;;;;;;;18.00;13.35;;;10.60;99.90;;;;;;4973493;28;20114;-79
2022/09/27 06:44:23;;;;;;;15.73;11.80;;;10.70;99.90;;;;;;4976577;28;20022;-78
2022/09/27 06:46:54;;;;;;;14.40;11.45;;;10.80;99.90;;;;;;4993187;28;20079;-81
2022/09/27 06:49:21;;;;;;;14.88;10.43;;;11.00;99.90;;;;;;4994011;28;20014;-78
2022/09/27 06:51:47;;;;;;;16.00;11.70;;;11.20;99.90;;;;;;4993891;28;20041;-81
2022/09/27 06:54:13;;;;;;;12.60;10.20;;;11.30;99.90;;;;;;4993655;28;20062;-77
2022/09/27 06:56:39;;;;;;;13.80;8.75;;;11.60;99.90;;;;;;4992496;28;20050;-81
2022/09/27 07:01:51;;;;;;;13.75;8.18;;;11.80;99.90;;;;;;4994108;28;20045;-82
2022/09/27 07:04:17;;;;;;;11.73;8.75;;;11.90;99.90;;;;;;4993716;28;20089;-78
2022/09/27 07:06:43;;;;;;;9.93;8.10;;;12.00;99.90;;;;;;4992267;28;20054;-78
2022/09/27 07:09:09;;;;;;;8.98;7.85;;;12.20;99.90;;;;;;4993594;28;20136;-78
2022/09/27 07:11:37;;;;;;;10.70;8.18;;;12.30;99.90;;;;;;4992305;28;20019;-78
2022/09/27 07:14:03;;;;;;;10.80;8.85;;;12.40;99.90;;;;;;4993534;28;20105;-82
2022/09/27 07:16:33;;;;;;;10.98;8.38;;;12.50;99.90;;;;;;4993554;28;20539;-81
2022/09/27 07:18:59;;;;;;;8.15;7.07;;;12.70;99.90;;;;;;4993502;28;20022;-82
2022/09/27 07:21:25;;;;;;;9.80;7.80;;;12.80;99.90;;;;;;5032314;28;20024;-82
2022/09/27 07:23:51;;;;;;;7.78;6.90;;;12.90;99.90;;;;;;5075594;28;20493;-82
2022/09/27 07:26:17;;;;;;;8.18;7.07;;;13.00;99.90;;;;;;5072192;28;20032;-79
2022/09/27 07:28:43;;;;;;;7.03;6.32;;;13.10;99.90;;;;;;4993263;28;20416;-82
2022/09/27 07:31:09;;;;;;;10.23;7.50;;;13.20;99.90;;;;;;4992057;28;20046;-82
2022/09/27 07:33:35;;;;;;;10.07;8.40;;;13.20;99.90;;;;;;4991984;28;20023;-77
2022/09/27 07:36:07;;;;;;;11.80;8.13;;;13.40;99.90;;;;;;5010286;28;20071;-77
2022/09/27 07:38:32;;;;;;;9.48;6.85;;;13.50;99.90;;;;;;4993295;28;20034;-82
2022/09/27 07:41:04;;;;;;;16.60;8.40;;;13.60;99.90;;;;;;4991776;28;20022;-78
2022/09/27 07:43:29;;;;;;;9.20;6.80;;;13.70;99.90;;;;;;4992130;28;20488;-82
2022/09/27 07:45:55;;;;;;;11.15;7.38;;;13.80;99.90;;;;;;4992072;28;20034;-81
2022/09/27 07:48:21;;;;;;;8.02;6.57;;;14.00;99.90;;;;;;4992326;28;20022;-82
2022/09/27 07:50:47;;;;;;;8.50;7.32;;;14.00;99.90;;;;;;4993038;28;20030;-77
2022/09/27 07:53:12;;;;;;;10.50;7.20;;;14.10;99.90;;;;;;4993401;28;20030;-82
2022/09/27 07:55:39;;;;;;;16.13;8.80;;;14.10;99.90;;;;;;4991708;28;20427;-77
2022/09/27 07:58:07;;;;;;;12.10;8.73;;;14.20;99.90;;;;;;4978489;28;20054;-78
2022/09/27 08:00:34;;;;;;;11.98;8.25;;;14.30;99.90;;;;;;4973410;28;20114;-78
2022/09/27 08:03:08;;;;;;;8.55;6.43;;;14.40;99.90;;;;;;4972167;28;20026;-82
2022/09/27 08:05:35;;;;;;;13.68;8.82;;;14.50;99.90;;;;;;4973308;28;20031;-82
2022/09/27 08:08:01;;;;;;;14.23;8.68;;;14.50;99.90;;;;;;4972158;28;20019;-83
2022/09/27 08:10:30;;;;;;;8.57;6.65;;;14.60;99.90;;;;;;4972020;28;20023;-77
2022/09/27 08:13:04;;;;;;;7.30;5.53;;;14.70;99.90;;;;;;4973280;28;20461;-82
2022/09/27 08:15:31;;;;;;;9.82;6.70;;;14.70;99.90;;;;;;4972097;28;20465;-83
2022/09/27 08:17:57;;;;;;;9.30;7.00;;;14.90;99.90;;;;;;4973238;28;20034;-82
2022/09/27 08:20:23;;;;;;;9.82;6.72;;;14.90;99.90;;;;;;4971990;28;20035;-82
2022/09/27 08:22:49;;;;;;;9.55;6.72;;;15.00;99.90;;;;;;4973203;28;20395;-83
2022/09/27 08:25:14;;;;;;;7.93;5.68;;;15.00;99.90;;;;;;4973074;28;20027;-77
2022/09/27 08:27:41;;;;;;;6.53;5.28;;;15.10;99.90;;;;;;4971593;28;20034;-83
2022/09/27 08:30:07;;;;;;;6.57;5.68;;;15.20;99.90;;;;;;4971708;28;20033;-83
2022/09/27 08:32:33;;;;;;;7.53;5.18;;;15.20;99.90;;;;;;4972939;28;20592;-78
2022/09/27 08:34:58;;;;;;;6.20;5.03;;;15.40;99.90;;;;;;4982683;28;20030;-78
2022/09/27 08:37:25;;;;;;;6.80;5.03;;;15.50;99.90;;;;;;4991093;28;20026;-83
2022/09/27 08:39:51;;;;;;;5.43;4.88;;;15.60;99.90;;;;;;4992370;28;20109;-78
2022/09/27 08:42:22;;;;;;;8.45;4.30;;;15.70;99.90;;;;;;4990918;28;20050;-78
2022/09/27 08:45:00;;;;;;;6.35;3.95;;;15.80;99.90;;;;;;4991044;28;20026;-79
2022/09/27 08:47:34;;;;;;;5.70;4.38;;;15.90;99.90;;;;;;4992178;28;20038;-83
2022/09/27 08:50:17;;;;;;;6.53;5.25;;;16.00;99.90;;;;;;4992202;28;20022;-78
2022/09/27 08:52:49;;;;;;;6.80;4.45;;;16.00;94.90;;;;;;4990815;28;20030;-83
2022/09/27 08:55:40;;;;;;;5.88;4.05;;;16.10;94.20;;;;;;4990962;28;20038;-83
2022/09/27 08:58:27;;;;;;;8.13;5.72;;;16.30;95.30;;;;;;4992099;28;20022;-78
2022/09/27 09:01:05;;;;;;;5.78;3.63;;;16.30;87.90;;;;;;4991973;28;20030;-83
2022/09/27 09:03:35;;;;;;;7.50;4.90;;;16.30;91.70;;;;;;4991899;28;20037;-83
2022/09/27 09:06:10;;;;;;;3.42;2.85;;;16.50;94.40;;;;;;4990659;28;20041;-78
2022/09/27 09:08:44;;;;;;;4.43;3.30;;;16.50;88.00;;;;;;4990655;28;20045;-78
2022/09/27 09:14:28;;;;;;;3.08;2.75;;;16.60;87.40;;;;;;4991913;28;20041;-81
2022/09/27 09:17:11;;;;;;;3.95;3.47;;;16.70;84.80;;;;;;4990615;28;20042;-78
2022/09/27 09:20:14;;;;;;;5.10;3.00;;;16.60;82.20;;;;;;4990452;28;20034;-78
2022/09/27 09:22:52;;;;;;;3.53;2.85;;;16.80;88.20;;;;;;4986534;28;20730;-78
2022/09/27 09:25:21;;;;;;;2.85;2.65;;;16.90;86.70;;;;;;4971491;28;20050;-78
2022/09/27 09:28:13;;;;;;;4.07;2.78;;;17.00;84.00;;;;;;4972209;28;20027;-78
2022/09/27 09:31:06;;;;;;;4.25;3.00;;;17.00;80.20;;;;;;4972214;28;20427;-84
2022/09/27 09:33:58;;;;;;;4.32;3.55;;;17.10;79.10;;;;;;4969976;28;20115;-78
2022/09/27 09:36:34;;;;;;;2.78;2.53;;;17.10;78.90;;;;;;4998747;28;20057;-83
2022/09/27 09:39:20;;;;;;;6.15;3.42;;;17.10;76.70;;;;;;4985186;28;20380;-84
2022/09/27 09:41:55;;;;;;;4.72;2.83;;;17.10;77.80;;;;;;4971922;28;20025;-78
2022/09/27 09:44:26;;;;;;;4.47;3.30;;;17.10;76.50;;;;;;4971814;28;20023;-78
2022/09/27 09:46:58;;;;;;;5.45;2.75;;;17.10;76.40;;;;;;4970663;28;20030;-78
2022/09/27 09:49:26;;;;;;;5.13;3.43;;;17.20;78.00;;;;;;4971918;28;20454;-84
2022/09/27 09:51:57;;;;;;;9.27;4.80;;;17.20;75.00;;;;;;4971758;28;20031;-83
2022/09/27 09:54:36;;;;;;;2.50;2.30;;;17.30;76.90;;;;;;4971855;28;20076;-79
2022/09/27 09:57:07;;;;;;;2.10;2.00;;;17.20;74.90;;;;;;4970554;28;20066;-83
2022/09/27 09:59:42;;;;;;;3.05;2.53;;;17.20;74.70;;;;;;4970479;28;20050;-84
2022/09/27 10:02:24;;;;;;;5.25;3.42;;;17.10;74.00;;;;;;4971904;28;20057;-83
2022/09/27 10:04:50;;;;;;;2.72;2.45;;;17.20;73.80;;;;;;4970342;28;20027;-78
2022/09/27 10:07:20;;;;;;;4.25;2.30;;;17.20;73.10;;;;;;4970373;28;20515;-84
2022/09/27 10:09:45;;;;;;;5.82;3.58;;;17.30;73.60;;;;;;4971921;28;20027;-83
2022/09/27 10:12:11;;;;;;;2.55;2.38;;;17.30;77.20;;;;;;4973616;28;20129;-84
2022/09/27 10:14:38;;;;;;;5.40;3.10;;;17.20;77.00;;;;;;4977814;28;20399;-84
2022/09/27 10:17:09;;;;;;;3.70;2.88;;;17.20;78.70;;;;;;4977801;28;20026;-78
2022/09/27 10:19:38;;;;;;;3.35;2.55;;;17.20;75.70;;;;;;4992429;28;20046;-84
2022/09/27 10:22:35;;;;;;;3.30;2.42;;;17.20;76.90;;;;;;4997246;28;20026;-78
2022/09/27 10:25:06;;;;;;;6.18;3.22;;;17.20;76.10;;;;;;4996119;28;20030;-84
2022/09/27 10:27:45;;;;;;;7.95;3.17;;;17.30;78.10;;;;;;4995992;28;20026;-83
2022/09/27 10:30:40;;;;;;;3.72;2.80;;;17.30;77.70;;;;;;4975878;28;20065;-84
2022/09/27 10:33:15;;;;;;;2.53;2.30;;;17.30;75.10;;;;;;5001837;28;20079;-78
2022/09/27 10:35:44;;;;;;;3.33;2.63;;;17.30;75.50;;;;;;4991039;28;20034;-78
2022/09/27 10:38:21;;;;;;;5.47;3.17;;;17.40;78.50;;;;;;4985310;28;20020;-78
2022/09/27 10:40:49;;;;;;;3.88;2.30;;;17.50;77.50;;;;;;4995427;28;20029;-78
2022/09/27 10:43:31;;;;;;;2.53;2.33;;;17.50;74.10;;;;;;4994776;28;20044;-79
2022/09/27 10:46:03;;;;;;;2.88;2.50;;;17.60;73.80;;;;;;4994864;28;20084;-78
2022/09/27 10:48:29;;;;;;;3.45;2.30;;;17.50;73.50;;;;;;4975576;28;20031;-78
2022/09/27 10:51:04;;;;;;;3.03;2.70;;;17.40;74.30;;;;;;4983756;28;20440;-78
2022/09/27 10:53:32;;;;;;;3.50;2.13;;;17.50;75.90;;;;;;5016327;28;20090;-78
2022/09/27 10:55:58;;;;;;;3.00;2.67;;;17.50;75.40;;;;;;5021607;28;20054;-78
2022/09/27 10:58:26;;;;;;;2.90;2.60;;;17.50;78.40;;;;;;4996782;28;20418;-78
2022/09/27 11:01:02;;;;;;;2.63;2.42;;;17.50;75.60;;;;;;4995090;28;20034;-77
2022/09/27 11:03:30;;;;;;;3.08;2.75;;;17.50;73.30;;;;;;4984199;28;20034;-77
2022/09/27 11:05:58;;;;;;;3.53;2.67;;;17.50;73.00;;;;;;4995263;28;20050;-78
2022/09/27 11:08:34;;;;;;;3.10;2.70;;;17.60;74.70;;;;;;4996182;28;20054;-78
2022/09/27 11:11:05;;;;;;;5.75;3.83;;;17.80;73.60;;;;;;4995628;28;20038;-77
2022/09/27 11:13:33;;;;;;;3.75;2.83;;;17.90;74.60;;;;;;4986418;28;20035;-78
2022/09/27 11:16:08;;;;;;;5.78;2.60;;;17.90;73.00;;;;;;4993706;28;20153;-78
2022/09/27 11:18:59;;;;;;;2.60;2.40;;;18.00;73.30;;;;;;5013820;28;20040;-78
2022/09/27 11:21:44;;;;;;;3.25;2.30;;;18.00;71.80;;;;;;4983057;28;20113;-77
2022/09/27 11:24:31;;;;;;;3.08;2.72;;;18.10;71.60;;;;;;5011065;28;20049;-85
2022/09/27 11:27:04;;;;;;;14.90;8.00;;;18.20;70.20;;;;;;4992389;28;20035;-78
2022/09/27 11:29:36;;;;;;;16.85;8.65;;;18.20;70.00;;;;;;5006439;28;20423;-78
2022/09/27 11:32:25;;;;;;;7.38;4.53;;;18.20;72.40;;;;;;4991796;28;20100;-78
2022/09/27 11:35:12;;;;;;;4.20;3.35;;;18.30;71.80;;;;;;4990476;28;20664;-78
2022/09/27 11:37:47;;;;;;;5.40;3.30;;;18.30;73.10;;;;;;4996541;28;20435;-85
2022/09/27 11:40:24;;;;;;;2.92;2.55;;;18.20;70.20;;;;;;4992136;28;20037;-86
2022/09/27 11:43:08;;;;;;;3.28;2.80;;;18.10;72.60;;;;;;5003518;28;20068;-78
2022/09/27 11:45:47;;;;;;;3.92;2.67;;;18.10;72.80;;;;;;5005847;28;20087;-78
2022/09/27 11:48:22;;;;;;;3.38;3.05;;;18.20;73.90;;;;;;5015855;28;20028;-83
2022/09/27 11:50:55;;;;;;;3.95;2.88;;;18.20;71.40;;;;;;4996326;28;20042;-81
2022/09/27 11:53:33;;;;;;;4.13;2.50;;;18.20;71.90;;;;;;5019258;28;20067;-80
2022/09/27 11:56:22;;;;;;;2.90;2.70;;;18.20;72.20;;;;;;4987771;28;20065;-83
2022/09/27 11:59:05;;;;;;;3.25;2.72;;;18.10;71.80;;;;;;5016176;28;20537;-83
2022/09/27 12:01:53;;;;;;;2.72;2.53;;;18.00;71.70;;;;;;4990091;28;20084;-82
2022/09/27 12:04:38;;;;;;;2.97;2.47;;;17.80;71.50;;;;;;4999629;28;20115;-82
2022/09/27 12:07:46;;;;;;;4.97;2.42;;;17.70;68.10;;;;;;4987004;28;20042;-83
2022/09/27 12:10:15;;;;;;;3.47;2.70;;;17.70;68.80;;;;;;5009686;28;20035;-83
2022/09/27 12:12:44;;;;;;;3.85;3.25;;;17.70;71.20;;;;;;4990579;28;20472;-82
2022/09/27 12:15:28;;;;;;;15.65;10.93;;;17.80;72.20;;;;;;4990958;28;20048;-80
2022/09/27 12:18:07;;;;;;;23.05;18.55;;;17.80;72.80;;;;;;4991779;28;20054;-80
2022/09/27 12:20:36;;;;;;;10.13;5.10;;;17.80;76.40;;;;;;4991400;28;20030;-81
2022/09/27 12:23:17;;;;;;;4.78;4.32;;;17.80;76.00;;;;;;4991709;28;20080;-80
2022/09/27 12:25:45;;;;;;;4.82;4.40;;;17.70;78.30;;;;;;4990664;28;20046;-83
2022/09/27 12:28:24;;;;;;;3.95;3.65;;;17.70;80.30;;;;;;4992259;28;20032;-81
2022/09/27 12:30:57;;;;;;;5.78;3.95;;;17.70;82.10;;;;;;5011378;28;20043;-83
2022/09/27 12:33:40;;;;;;;4.45;3.85;;;17.60;84.20;;;;;;4987709;28;20046;-82
2022/09/27 12:36:13;;;;;;;3.50;3.20;;;17.70;82.10;;;;;;4995138;28;20113;-82
2022/09/27 12:38:50;;;;;;;5.10;3.58;;;17.70;79.10;;;;;;4987115;28;20096;-82
2022/09/27 12:41:19;;;;;;;6.07;3.88;;;17.70;82.50;;;;;;4986973;28;20023;-82
2022/09/27 12:43:48;;;;;;;6.93;4.57;;;17.60;84.40;;;;;;4984118;28;20141;-82
2022/09/27 12:46:33;;;;;;;4.57;4.18;;;17.50;83.10;;;;;;4988586;28;20042;-82
2022/09/27 12:49:22;;;;;;;4.70;4.30;;;17.40;84.90;;;;;;4988945;28;20514;-82
2022/09/27 12:51:51;;;;;;;7.47;4.25;;;17.30;88.10;;;;;;4988511;28;20053;-82
2022/09/27 12:54:19;;;;;;;4.70;4.30;;;17.20;85.40;;;;;;4989419;28;20041;-82
2022/09/27 12:57:28;;;;;;;6.05;5.40;;;17.20;87.30;;;;;;4990766;28;20034;-82
2022/09/27 13:00:03;;;;;;;6.43;4.88;;;17.20;88.30;;;;;;4998450;28;20087;-82
2022/09/27 13:03:13;;;;;;;7.13;5.00;;;17.20;89.70;;;;;;4990615;28;20733;-82
2022/09/27 13:06:05;;;;;;;6.07;4.72;;;17.10;90.00;;;;;;4989952;28;20515;-83
2022/09/27 13:09:04;;;;;;;6.40;4.15;;;17.00;89.60;;;;;;4976542;28;20035;-83
2022/09/27 13:12:09;;;;;;;5.20;4.70;;;16.90;90.90;;;;;;4996447;28;20046;-83
2022/09/27 13:15:02;;;;;;;5.10;4.38;;;17.00;91.00;;;;;;4988948;28;20041;-83
2022/09/27 13:17:39;;;;;;;6.80;5.05;;;16.90;89.70;;;;;;4989950;28;20055;-83